Time;durP1;ratioP1;P1;durP2;ratioP2;P2;SDS_P1;SDS_P2;PMS_P1;PMS_P2;Temp;Humidity;BMP_temperature;BMP_pressure;BME280_temperature;BME280_humidity;BME280_pressure;Samples;Min_cycle;Max_cycle;Signal;HPM_P1;HPM_P2
2021/04/12 00:02:20;;;;;;;0.40;0.40;;;;;;;4.83;57.96;94103.34;5089972;28;20108;-36
2021/04/12 00:05:27;;;;;;;0.45;0.40;;;;;;;4.66;59.08;94108.03;5091519;28;20101;-36
2021/04/12 00:08:07;;;;;;;0.80;0.80;;;;;;;4.69;58.36;94104.31;5068255;28;20036;-37
2021/04/12 00:11:00;;;;;;;0.47;0.47;;;;;;;4.87;57.43;94099.13;5090944;28;20036;-37
2021/04/12 00:13:52;;;;;;;1.02;1.02;;;;;;;4.83;57.27;94101.34;5088931;28;20082;-36
2021/04/12 00:16:20;;;;;;;1.92;1.83;;;;;;;4.39;58.70;94096.53;5052750;28;20032;-37
2021/04/12 00:19:03;;;;;;;2.70;1.75;;;;;;;4.37;59.35;94101.00;5090674;28;20059;-37
2021/04/12 00:21:40;;;;;;;1.73;1.15;;;;;;;4.38;60.38;94092.31;5090572;28;20564;-37
2021/04/12 00:24:32;;;;;;;0.90;0.90;;;;;;;4.38;59.31;94092.31;5089184;28;20527;-37
2021/04/12 00:27:14;;;;;;;3.50;2.80;;;;;;;4.24;59.96;94087.06;5082740;28;20425;-37
2021/04/12 00:29:45;;;;;;;0.60;0.60;;;;;;;4.09;60.01;94090.00;5087579;28;20063;-39
2021/04/12 00:32:30;;;;;;;1.98;1.88;;;;;;;3.88;59.97;94085.91;5089098;28;20624;-39
2021/04/12 00:35:02;;;;;;;0.63;0.63;;;;;;;4.09;59.90;94084.53;5084369;28;20025;-39
2021/04/12 00:37:33;;;;;;;1.15;1.05;;;;;;;4.04;60.78;94081.75;5070850;28;20497;-38
2021/04/12 00:40:08;;;;;;;2.65;2.50;;;;;;;4.05;61.16;94086.72;5070801;28;20020;-39
2021/04/12 00:42:33;;;;;;;3.25;3.05;;;;;;;4.16;59.37;94092.22;5069409;28;20032;-39
2021/04/12 00:45:14;;;;;;;6.18;1.83;;;;;;;3.83;60.59;94081.91;5070644;28;20557;-38
2021/04/12 00:47:40;;;;;;;2.30;2.10;;;;;;;3.94;60.50;94077.75;5071820;28;20040;-40
2021/04/12 00:50:05;;;;;;;3.35;1.90;;;;;;;3.88;60.26;94076.97;5090287;28;20504;-40
2021/04/12 00:53:13;;;;;;;0.32;0.32;;;;;;;3.73;60.36;94077.16;5090421;28;20038;-39
2021/04/12 00:55:41;;;;;;;0.85;0.85;;;;;;;3.80;59.69;94082.16;5090263;28;20051;-39
2021/04/12 00:58:19;;;;;;;1.47;1.37;;;;;;;3.94;59.89;94081.25;5088874;28;20024;-40
2021/04/12 01:01:00;;;;;;;0.32;0.32;;;;;;;4.00;59.96;94073.06;5090139;28;20119;-39
2021/04/12 01:04:09;;;;;;;1.00;1.00;;;;;;;3.88;59.49;94069.53;5078552;28;20048;-40
2021/04/12 01:06:53;;;;;;;;;;;;;;;3.76;61.05;94076.19;5070150;28;20058;-39
2021/04/12 01:09:52;;;;;;;1.20;0.98;;;;;;;3.63;61.14;94081.31;5069580;28;20186;-39
2021/04/12 01:12:58;;;;;;;0.47;0.47;;;;;;;3.70;61.07;94072.69;5069801;28;20565;-39
2021/04/12 01:15:53;;;;;;;1.40;1.30;;;;;;;3.35;61.45;94067.53;5069575;28;20094;-39
2021/04/12 01:18:33;;;;;;;0.40;0.40;;;;;;;2.90;62.90;94055.53;5068352;28;20063;-39
2021/04/12 01:21:41;;;;;;;0.82;0.82;;;;;;;2.85;63.78;94064.44;5068460;28;20036;-40
2021/04/12 01:24:28;;;;;;;0.65;0.65;;;;;;;3.13;63.59;94070.09;5059092;28;20063;-40
2021/04/12 01:27:30;;;;;;;0.30;0.30;;;;;;;3.32;61.55;94059.53;5069465;28;20067;-40
2021/04/12 01:30:20;;;;;;;0.85;0.85;;;;;;;3.39;61.50;94057.13;5078935;28;20031;-39
2021/04/12 01:33:16;;;;;;;6.07;1.42;;;;;;;3.43;61.40;94065.06;5088954;28;20420;-40
2021/04/12 01:36:19;;;;;;;0.85;0.85;;;;;;;3.53;60.89;94063.66;5089818;28;20030;-39
2021/04/12 01:38:56;;;;;;;0.65;0.65;;;;;;;3.14;62.02;94060.66;5089813;28;20439;-39
2021/04/12 01:41:55;;;;;;;0.68;0.65;;;;;;;3.28;62.04;94064.47;5089484;28;20028;-39
2021/04/12 01:44:35;;;;;;;0.93;0.93;;;;;;;3.31;61.68;94067.00;5083045;28;20028;-39
2021/04/12 01:47:16;;;;;;;0.47;0.47;;;;;;;3.22;61.25;94069.16;5068103;28;20041;-39
2021/04/12 01:49:53;;;;;;;1.65;0.52;;;;;;;3.21;61.97;94065.69;5069513;28;20029;-39
2021/04/12 01:52:40;;;;;;;0.30;0.30;;;;;;;3.10;62.67;94059.41;5069553;28;20034;-39
2021/04/12 01:55:23;;;;;;;0.30;0.30;;;;;;;2.81;63.84;94063.91;5069185;28;20038;-39
2021/04/12 01:58:24;;;;;;;0.57;0.57;;;;;;;2.75;64.23;94052.19;5068167;28;20024;-39
2021/04/12 02:01:14;;;;;;;0.57;0.57;;;;;;;2.93;64.36;94054.56;5066043;28;20040;-39
2021/04/12 02:04:01;;;;;;;0.35;0.35;;;;;;;3.02;63.22;94057.13;5069201;28;20144;-39
2021/04/12 02:06:33;;;;;;;0.40;0.40;;;;;;;3.20;62.93;94058.75;5069073;28;20399;-39
2021/04/12 02:09:17;;;;;;;0.30;0.30;;;;;;;3.29;61.87;94052.34;5071228;28;20570;-39
2021/04/12 02:11:50;;;;;;;1.48;1.38;;;;;;;3.35;61.21;94047.66;5071936;28;20073;-39
2021/04/12 02:14:38;;;;;;;1.15;1.15;;;;;;;3.38;62.12;94050.16;5072171;28;20021;-38
2021/04/12 02:17:20;;;;;;;1.77;1.67;;;;;;;3.27;60.67;94020.06;5072008;28;20040;-38
2021/04/12 02:20:04;;;;;;;7.38;1.00;;;;;;;3.53;60.89;94048.00;5071729;28;20555;-39
2021/04/12 02:23:07;;;;;;;1.33;1.23;;;;;;;3.48;61.10;94037.06;5072907;28;20501;-38
2021/04/12 02:25:44;;;;;;;0.63;0.63;;;;;;;3.41;62.07;94035.53;5073020;28;20055;-38
2021/04/12 02:28:24;;;;;;;0.40;0.40;;;;;;;3.33;62.19;94044.69;5071624;28;20505;-38
2021/04/12 02:31:21;;;;;;;0.73;0.73;;;;;;;3.08;62.24;94038.81;5073877;28;20709;-38
2021/04/12 02:34:00;;;;;;;0.70;0.70;;;;;;;3.10;62.31;94038.31;5072862;28;20045;-39
2021/04/12 02:36:38;;;;;;;;;;;;;;;3.24;62.68;94042.13;5073526;28;20409;-38
2021/04/12 02:39:21;;;;;;;0.50;0.50;;;;;;;3.14;63.33;94046.28;5072743;28;19940;-38
2021/04/12 02:42:43;;;;;;;0.35;0.35;;;;;;;3.09;63.25;94034.13;5086612;28;20030;-38
2021/04/12 02:45:30;;;;;;;0.50;0.50;;;;;;;3.14;64.05;94021.75;5010545;28;20533;-39
2021/04/12 02:48:14;;;;;;;0.60;0.60;;;;;;;3.39;63.56;94027.09;4993946;28;20120;-38
2021/04/12 02:50:57;;;;;;;1.10;1.10;;;;;;;3.44;63.24;94015.47;5080766;28;20126;-38
2021/04/12 02:53:26;;;;;;;0.65;0.65;;;;;;;3.45;62.71;94013.47;5091452;28;20092;-38
2021/04/12 02:56:30;;;;;;;0.35;0.35;;;;;;;3.45;62.69;94006.03;5091580;28;20028;-38
2021/04/12 02:59:09;;;;;;;0.60;0.50;;;;;;;3.63;63.54;94008.34;5092686;28;20157;-39
2021/04/12 03:02:02;;;;;;;0.88;0.88;;;;;;;3.79;63.65;94013.13;5091483;28;20035;-39
2021/04/12 03:04:51;;;;;;;1.58;1.50;;;;;;;3.84;61.09;93985.09;5075464;28;20135;-39
2021/04/12 03:07:35;;;;;;;1.25;1.17;;;;;;;4.04;60.67;94003.28;5072009;28;20028;-39
2021/04/12 03:10:22;;;;;;;0.32;0.32;;;;;;;4.00;61.67;94002.03;5072057;28;20043;-39
2021/04/12 03:12:59;;;;;;;0.82;0.82;;;;;;;3.84;61.76;93992.53;5072297;28;20109;-39
2021/04/12 03:15:46;;;;;;;2.00;1.90;;;;;;;3.88;62.57;94006.69;5070716;28;20486;-39
2021/04/12 03:18:30;;;;;;;1.55;1.33;;;;;;;4.07;61.36;94001.53;5071790;28;20035;-39
2021/04/12 03:21:26;;;;;;;0.70;0.70;;;;;;;4.16;61.47;94012.97;5071980;28;20025;-37
2021/04/12 03:24:00;;;;;;;1.63;1.52;;;;;;;4.17;60.84;94006.28;5079167;28;20040;-39
2021/04/12 03:26:50;;;;;;;1.35;1.15;;;;;;;4.11;62.17;94002.06;5092057;28;20031;-39
2021/04/12 03:29:28;;;;;;;0.50;0.50;;;;;;;4.07;60.93;94010.47;5073147;28;20035;-40
2021/04/12 03:32:15;;;;;;;0.75;0.75;;;;;;;3.96;62.12;94007.72;5070687;28;20029;-39
2021/04/12 03:34:51;;;;;;;0.65;0.65;;;;;;;4.01;61.82;94006.22;5071555;28;20027;-40
2021/04/12 03:37:31;;;;;;;1.45;1.35;;;;;;;4.13;62.06;94005.03;5070482;28;20037;-39
2021/04/12 03:40:16;;;;;;;1.88;1.80;;;;;;;4.19;61.84;94008.53;5070443;28;20024;-40
2021/04/12 03:43:19;;;;;;;1.20;1.10;;;;;;;4.15;62.47;94011.50;5071387;28;20024;-39
2021/04/12 03:46:09;;;;;;;1.13;1.13;;;;;;;4.23;62.30;93998.84;5070382;28;20032;-39
2021/04/12 03:49:11;;;;;;;3.33;2.10;;;;;;;4.43;62.15;93995.16;5071248;28;20032;-39
2021/04/12 03:52:15;;;;;;;0.95;0.95;;;;;;;4.33;62.67;93991.88;5071214;28;20501;-39
2021/04/12 03:54:50;;;;;;;0.55;0.55;;;;;;;4.37;62.46;94006.09;5069322;28;20037;-39
2021/04/12 03:57:36;;;;;;;4.43;2.25;;;;;;;4.04;62.94;93999.78;5071381;28;20021;-39
2021/04/12 04:00:14;;;;;;;1.45;1.38;;;;;;;4.20;61.42;94004.56;5071003;28;20115;-39
2021/04/12 04:02:58;;;;;;;1.45;1.35;;;;;;;4.38;60.46;94001.34;5072862;28;20053;-39
2021/04/12 04:05:41;;;;;;;2.40;2.10;;;;;;;4.46;60.78;94000.34;5072950;28;20124;-39
2021/04/12 04:08:34;;;;;;;8.10;2.67;;;;;;;4.47;60.56;94009.31;5080814;28;20115;-39
2021/04/12 04:11:03;;;;;;;2.67;2.42;;;;;;;4.42;61.33;94005.31;5089244;28;20656;-39
2021/04/12 04:13:37;;;;;;;1.80;1.65;;;;;;;4.52;60.70;94005.84;5090180;28;20088;-38
2021/04/12 04:16:21;;;;;;;2.67;2.22;;;;;;;4.49;61.54;94004.84;5088935;28;20062;-38
2021/04/12 04:18:56;;;;;;;0.65;0.45;;;;;;;4.58;60.96;94010.06;5075928;28;20028;-38
2021/04/12 04:21:39;;;;;;;1.50;1.40;;;;;;;4.58;61.10;94001.13;5068729;28;20032;-38
2021/04/12 04:24:34;;;;;;;1.33;1.33;;;;;;;4.65;60.91;94005.34;5067109;28;20055;-38
2021/04/12 04:27:09;;;;;;;1.38;1.27;;;;;;;4.56;61.90;94004.34;5068315;28;20039;-38
2021/04/12 04:29:43;;;;;;;1.60;1.50;;;;;;;4.56;61.75;93993.41;5073880;28;20100;-38
2021/04/12 04:33:00;;;;;;;2.22;2.13;;;;;;;4.72;61.83;94005.59;5078919;28;20035;-38
2021/04/12 04:35:59;;;;;;;4.53;2.83;;;;;;;4.95;60.51;93993.41;5045040;28;20102;-38
2021/04/12 04:38:33;;;;;;;;;;;;;;;4.93;61.60;93992.41;5086725;28;20458;-38
2021/04/12 04:41:17;;;;;;;2.83;2.58;;;;;;;4.92;61.39;93999.88;5088297;28;19908;-39
2021/04/12 04:44:13;;;;;;;2.45;2.03;;;;;;;5.06;62.11;94000.84;5088342;28;20028;-38
2021/04/12 04:47:00;;;;;;;5.18;3.92;;;;;;;5.11;62.06;94008.31;5088967;28;20737;-39
2021/04/12 04:49:37;;;;;;;12.63;7.63;;;;;;;5.19;61.76;93999.09;5088076;28;20128;-38
2021/04/12 04:52:37;;;;;;;4.57;4.22;;;;;;;5.41;60.80;93990.09;5087385;28;20694;-38
2021/04/12 04:55:08;;;;;;;0.82;0.77;;;;;;;5.18;61.68;93994.84;5088632;28;20027;-38
2021/04/12 04:57:49;;;;;;;2.15;2.05;;;;;;;5.33;62.45;93992.59;5088487;28;20027;-38
2021/04/12 05:00:51;;;;;;;3.33;3.08;;;;;;;5.55;60.93;93985.56;5088094;28;20035;-38
2021/04/12 05:03:28;;;;;;;1.80;1.73;;;;;;;5.64;60.35;93988.00;5087452;28;20098;-35
2021/04/12 05:06:24;;;;;;;2.05;1.55;;;;;;;5.78;60.42;93987.69;5087948;28;20039;-38
2021/04/12 05:09:33;;;;;;;3.65;1.92;;;;;;;5.98;60.65;93983.91;5087698;28;20036;-38
2021/04/12 05:12:31;;;;;;;5.25;3.92;;;;;;;6.03;59.27;93983.13;5005185;28;20042;-38
2021/04/12 05:15:13;;;;;;;2.72;2.53;;;;;;;6.25;59.07;93991.25;5044260;28;20036;-36
2021/04/12 05:17:58;;;;;;;1.52;1.42;;;;;;;6.41;58.02;93984.91;5066220;28;20025;-39
2021/04/12 05:20:33;;;;;;;6.30;3.72;;;;;;;6.47;57.90;93988.38;5077212;28;20086;-41
2021/04/12 05:23:08;;;;;;;3.25;2.38;;;;;;;6.42;58.31;93989.16;5067384;28;20031;-39
2021/04/12 05:25:43;;;;;;;5.28;3.38;;;;;;;6.45;57.99;93990.88;5066984;28;20501;-39
2021/04/12 05:28:34;;;;;;;2.70;2.53;;;;;;;6.46;58.61;93997.09;5082946;28;20440;-39
2021/04/12 05:31:10;;;;;;;5.45;4.97;;;;;;;6.60;58.50;93993.28;5046270;28;20077;-39
2021/04/12 05:33:47;;;;;;;9.13;3.92;;;;;;;6.78;58.50;93993.38;5077742;28;20040;-40
2021/04/12 05:36:37;;;;;;;8.30;7.45;;;;;;;6.93;58.30;93995.00;5067406;28;20060;-41
2021/04/12 05:39:24;;;;;;;10.88;9.88;;;;;;;7.03;56.86;93988.69;5067245;28;20021;-41
2021/04/12 05:41:59;;;;;;;14.23;12.82;;;;;;;7.22;56.44;93994.25;5066958;28;20043;-39
2021/04/12 05:44:55;;;;;;;9.73;8.82;;;;;;;7.31;55.28;93983.69;5065542;28;20044;-36
2021/04/12 05:47:44;;;;;;;8.63;4.80;;;;;;;7.42;55.68;93982.81;5066946;28;20127;-38
2021/04/12 05:50:16;;;;;;;8.00;7.27;;;;;;;7.62;55.13;93980.31;5067067;28;20031;-39
2021/04/12 05:53:03;;;;;;;5.03;4.53;;;;;;;7.73;55.43;93989.72;5067066;28;20035;-41
2021/04/12 05:55:56;;;;;;;0.98;0.98;;;;;;;7.85;54.14;93985.56;5067320;28;20055;-38
2021/04/12 05:58:51;;;;;;;1.80;1.70;;;;;;;7.83;55.53;93997.09;5067069;28;20035;-38
2021/04/12 06:01:40;;;;;;;1.50;1.40;;;;;;;7.75;54.85;93989.94;5067659;28;20031;-38
2021/04/12 06:04:14;;;;;;;1.25;1.23;;;;;;;7.82;55.04;93994.88;5082209;28;20056;-38
2021/04/12 06:06:51;;;;;;;0.63;0.50;;;;;;;7.95;55.56;93992.22;5067037;28;20814;-38
2021/04/12 06:09:38;;;;;;;1.42;1.35;;;;;;;7.83;54.71;93990.84;5066858;28;20059;-38
2021/04/12 06:12:41;;;;;;;0.60;0.60;;;;;;;8.06;56.04;93995.56;5067282;28;20035;-37
2021/04/12 06:15:44;;;;;;;0.75;0.75;;;;;;;8.39;54.59;93980.66;5066918;28;20024;-39
2021/04/12 06:18:45;;;;;;;2.53;2.35;;;;;;;8.57;54.81;93990.16;5067044;28;20146;-39
2021/04/12 06:21:47;;;;;;;1.55;1.48;;;;;;;8.78;54.62;93985.56;5066635;28;20024;-38
2021/04/12 06:24:34;;;;;;;5.03;1.00;;;;;;;9.03;53.21;93979.41;5066832;28;20647;-38
2021/04/12 06:27:27;;;;;;;0.52;0.52;;;;;;;9.18;53.04;93974.13;5067027;28;20037;-38
2021/04/12 06:30:30;;;;;;;0.95;0.95;;;;;;;9.53;52.09;93986.81;5071697;28;20094;-38
2021/04/12 06:33:14;;;;;;;12.30;3.03;;;;;;;9.96;50.55;93981.00;5066817;28;20070;-37
2021/04/12 06:35:45;;;;;;;1.15;1.15;;;;;;;10.47;47.86;93981.44;5067266;28;20028;-37
2021/04/12 06:38:22;;;;;;;1.55;1.45;;;;;;;10.98;46.04;93985.28;5066376;28;20024;-39
2021/04/12 06:41:07;;;;;;;0.95;0.95;;;;;;;11.66;45.28;93982.34;5066505;28;20024;-38
2021/04/12 06:44:03;;;;;;;7.22;2.90;;;;;;;12.07;42.00;93983.00;5065854;28;20473;-39
2021/04/12 06:46:56;;;;;;;1.63;1.52;;;;;;;12.33;41.13;93982.00;5066455;28;20036;-38
2021/04/12 06:49:39;;;;;;;1.33;1.23;;;;;;;12.69;41.49;93987.50;5065714;28;20047;-38
2021/04/12 06:52:13;;;;;;;0.77;0.77;;;;;;;13.00;40.95;93991.06;5066909;28;20081;-39
2021/04/12 06:54:54;;;;;;;1.33;1.17;;;;;;;13.14;39.76;93986.88;5082333;28;20276;-40
2021/04/12 06:57:25;;;;;;;0.88;0.82;;;;;;;13.46;40.50;93985.06;5070563;28;20061;-39
2021/04/12 07:00:09;;;;;;;1.25;0.90;;;;;;;13.74;39.57;93978.56;5085619;28;20657;-39
2021/04/12 07:02:52;;;;;;;0.63;0.63;;;;;;;14.03;38.27;93984.63;5089974;28;20062;-39
2021/04/12 07:05:33;;;;;;;0.93;0.93;;;;;;;14.26;38.00;93980.50;5090093;28;20093;-41
2021/04/12 07:08:20;;;;;;;1.30;1.25;;;;;;;15.56;33.37;93970.19;5090228;28;20020;-40
2021/04/12 07:11:18;;;;;;;5.03;1.35;;;;;;;16.69;32.06;93977.41;5090206;28;20024;-40
2021/04/12 07:14:31;;;;;;;0.68;0.68;;;;;;;16.28;31.70;93978.25;5088683;28;20573;-39
2021/04/12 07:17:33;;;;;;;3.17;1.27;;;;;;;16.82;30.05;93977.06;5065800;28;20059;-40
2021/04/12 07:20:36;;;;;;;5.72;5.13;;;;;;;17.94;28.94;93968.34;5089832;28;20024;-39
2021/04/12 07:23:29;;;;;;;3.60;2.92;;;;;;;17.58;26.22;93971.19;5089508;28;20497;-39
2021/04/12 07:26:10;;;;;;;1.65;1.55;;;;;;;19.33;23.97;93956.06;5082009;28;20408;-39
2021/04/12 07:28:54;;;;;;;1.75;1.65;;;;;;;21.05;22.28;93949.38;5069025;28;20036;-41
2021/04/12 07:31:22;;;;;;;0.45;0.45;;;;;;;22.68;20.46;93938.13;5068023;28;20044;-40
2021/04/12 07:34:31;;;;;;;0.20;0.20;;;;;;;23.22;20.56;93939.09;5069768;28;20054;-40
2021/04/12 07:37:16;;;;;;;1.80;1.25;;;;;;;23.66;18.42;93931.63;5070210;28;20033;-42
2021/04/12 07:40:15;;;;;;;0.88;0.77;;;;;;;24.63;18.47;93932.44;5069703;28;20028;-41
2021/04/12 07:43:00;;;;;;;1.25;1.15;;;;;;;25.53;17.15;93938.94;5069418;28;20032;-41
2021/04/12 07:45:59;;;;;;;1.73;0.75;;;;;;;26.20;17.74;93936.31;5069400;28;20052;-40
2021/04/12 07:48:46;;;;;;;1.75;1.40;;;;;;;26.65;18.55;93934.03;5069603;28;20025;-40
2021/04/12 07:51:49;;;;;;;0.77;0.70;;;;;;;27.36;16.00;93936.94;5078394;28;20420;-42
2021/04/12 07:54:58;;;;;;;1.45;0.63;;;;;;;27.57;16.17;93928.56;5078452;28;20524;-41
2021/04/12 07:57:42;;;;;;;;;;;;;;;28.31;16.29;93916.44;5075214;28;20040;-41
2021/04/12 08:00:32;;;;;;;0.43;0.43;;;;;;;28.71;14.35;93922.81;5089397;28;19915;-42
2021/04/12 08:03:02;;;;;;;0.85;0.85;;;;;;;27.56;14.50;93912.94;5071085;28;20060;-42
2021/04/12 08:05:53;;;;;;;1.40;1.30;;;;;;;27.67;16.12;93909.09;5068071;28;20056;-43
2021/04/12 08:08:40;;;;;;;3.15;2.85;;;;;;;29.22;16.27;93908.16;5068360;28;20033;-42
2021/04/12 08:11:43;;;;;;;1.55;1.45;;;;;;;29.11;13.82;93907.09;5068901;28;20035;-41
2021/04/12 08:14:39;;;;;;;1.75;0.80;;;;;;;29.66;14.83;93908.81;5075728;28;20032;-44
2021/04/12 08:17:42;;;;;;;0.40;0.30;;;;;;;29.68;15.24;93903.91;5081213;28;20031;-42
2021/04/12 08:20:48;;;;;;;1.60;1.27;;;;;;;30.62;14.16;93897.34;5078543;28;20078;-41
2021/04/12 08:23:49;;;;;;;0.38;0.38;;;;;;;31.26;14.24;93898.28;5015032;28;20044;-42
2021/04/12 08:26:49;;;;;;;1.02;0.77;;;;;;;29.49;13.88;93887.69;5052462;28;20094;-44
2021/04/12 08:29:33;;;;;;;1.48;1.38;;;;;;;29.77;15.24;93899.22;5069190;28;20098;-42
2021/04/12 08:32:35;;;;;;;2.55;1.95;;;;;;;30.30;13.80;93899.31;5081092;28;20028;-42
2021/04/12 08:35:31;;;;;;;0.17;0.17;;;;;;;30.99;14.07;93892.63;5085458;28;20031;-41
2021/04/12 08:38:22;;;;;;;0.88;0.88;;;;;;;31.30;14.58;93880.53;5085800;28;20385;-42
2021/04/12 08:41:08;;;;;;;0.60;0.60;;;;;;;32.00;13.77;93878.56;5078197;28;20548;-42
2021/04/12 08:43:40;;;;;;;0.55;0.55;;;;;;;32.46;12.84;93870.94;5078533;28;20062;-42
2021/04/12 08:46:35;;;;;;;13.13;1.55;;;;;;;33.33;13.02;93869.63;5086905;28;20096;-42
2021/04/12 08:49:10;;;;;;;0.50;0.50;;;;;;;33.49;12.02;93869.84;5074962;28;20086;-42
2021/04/12 08:51:56;;;;;;;0.80;0.80;;;;;;;33.95;12.10;93861.19;5085062;28;20089;-42
2021/04/12 08:54:41;;;;;;;1.27;0.52;;;;;;;33.70;11.76;93868.03;5081233;28;20045;-42
2021/04/12 08:57:24;;;;;;;0.77;0.45;;;;;;;33.88;11.84;93868.25;5066669;28;20158;-43
2021/04/12 09:00:20;;;;;;;0.98;0.98;;;;;;;33.74;12.31;93865.94;5067712;28;20043;-40
2021/04/12 09:03:13;;;;;;;0.57;0.47;;;;;;;34.19;11.76;93861.53;5067996;28;20040;-43
2021/04/12 09:05:41;;;;;;;1.08;0.43;;;;;;;34.10;11.52;93852.13;5067858;28;20048;-42
2021/04/12 09:08:37;;;;;;;0.98;0.93;;;;;;;34.00;11.39;93845.50;5073170;28;20059;-42
2021/04/12 09:11:30;;;;;;;0.77;0.47;;;;;;;34.12;11.30;93845.69;5084270;28;20504;-42
2021/04/12 09:14:16;;;;;;;0.93;0.60;;;;;;;33.65;11.65;93837.88;5084409;28;20024;-43
2021/04/12 09:17:17;;;;;;;0.52;0.52;;;;;;;33.79;12.42;93830.19;5084589;28;20026;-45
2021/04/12 09:20:17;;;;;;;0.55;0.50;;;;;;;33.63;11.25;93838.59;5083740;28;20028;-44
2021/04/12 09:22:47;;;;;;;0.38;0.38;;;;;;;33.36;11.80;93834.59;5053952;28;20108;-44
2021/04/12 09:25:50;;;;;;;0.50;0.50;;;;;;;32.98;12.64;93830.38;5085696;28;20024;-42
2021/04/12 09:28:34;;;;;;;0.38;0.28;;;;;;;33.69;12.31;93827.22;5084760;28;20030;-45
2021/04/12 09:31:18;;;;;;;0.40;0.38;;;;;;;34.38;11.71;93825.91;5083329;28;20071;-43
2021/04/12 09:34:23;;;;;;;0.82;0.82;;;;;;;34.55;11.42;93823.94;5084430;28;20012;-44
2021/04/12 09:37:10;;;;;;;0.85;0.85;;;;;;;34.25;10.73;93822.19;5076295;28;20078;-42
2021/04/12 09:40:01;;;;;;;16.75;9.38;;;;;;;33.39;12.34;93816.03;5085046;28;20668;-42
2021/04/12 09:42:48;;;;;;;2.38;1.35;;;;;;;34.20;11.62;93823.56;5084190;28;20131;-43
2021/04/12 09:45:28;;;;;;;0.23;0.23;;;;;;;34.11;11.69;93822.03;5085873;28;20032;-42
2021/04/12 09:48:21;;;;;;;5.65;1.45;;;;;;;34.69;11.06;93813.34;5070830;28;20032;-45
2021/04/12 09:51:17;;;;;;;0.70;0.70;;;;;;;34.53;11.41;93803.84;5084833;28;20539;-42
2021/04/12 09:54:04;;;;;;;1.95;0.77;;;;;;;33.83;11.92;93795.88;5085397;28;20023;-42
2021/04/12 09:56:51;;;;;;;0.40;0.40;;;;;;;34.28;12.04;93794.97;5084085;28;20070;-44
2021/04/12 09:59:39;;;;;;;0.80;0.80;;;;;;;33.95;11.31;93798.91;5085999;28;20688;-41
2021/04/12 10:02:23;;;;;;;1.35;1.27;;;;;;;34.45;11.29;93792.28;5084683;28;20025;-42
2021/04/12 10:05:07;;;;;;;0.45;0.45;;;;;;;33.73;12.48;93789.28;5082274;28;20504;-42
2021/04/12 10:07:50;;;;;;;0.73;0.68;;;;;;;34.31;11.62;93793.59;5079129;28;20036;-43
2021/04/12 10:10:27;;;;;;;0.65;0.65;;;;;;;33.87;12.05;93792.34;5083609;28;20032;-43
2021/04/12 10:13:10;;;;;;;6.55;0.80;;;;;;;34.43;11.23;93787.25;5079146;28;20031;-42
2021/04/12 10:15:56;;;;;;;0.70;0.60;;;;;;;33.42;12.11;93786.00;5082480;28;20134;-44
2021/04/12 10:18:27;;;;;;;1.55;1.10;;;;;;;33.07;12.31;93786.91;5074698;28;20498;-43
2021/04/12 10:21:01;;;;;;;0.88;0.68;;;;;;;31.73;13.72;93785.91;5085910;28;20492;-43
2021/04/12 10:23:29;;;;;;;0.60;0.60;;;;;;;31.65;13.67;93776.44;5086315;28;20939;-42
2021/04/12 10:25:57;;;;;;;1.20;1.10;;;;;;;30.80;14.32;93773.81;5086569;28;20028;-42
2021/04/12 10:28:23;;;;;;;;;;;;;;;30.97;14.32;93781.38;5086898;28;20032;-42
2021/04/12 10:30:53;;;;;;;0.70;0.70;;;;;;;31.10;14.38;93780.25;5088148;28;19938;-42
2021/04/12 10:33:45;;;;;;;0.85;0.85;;;;;;;31.83;14.17;93774.69;5080688;28;20759;-41
2021/04/12 10:36:24;;;;;;;0.45;0.45;;;;;;;32.32;13.70;93762.06;5071615;28;20055;-44
2021/04/12 10:39:06;;;;;;;0.32;0.32;;;;;;;33.10;12.67;93751.22;5081733;28;20036;-43
2021/04/12 10:41:41;;;;;;;0.30;0.30;;;;;;;33.23;13.38;93755.69;5088377;28;20507;-43
2021/04/12 10:44:14;;;;;;;1.42;1.05;;;;;;;33.19;13.67;93740.59;5080068;28;20035;-42
2021/04/12 10:47:02;;;;;;;0.32;0.32;;;;;;;33.29;12.81;93752.19;5080657;28;20074;-42
2021/04/12 10:49:56;;;;;;;0.65;0.65;;;;;;;33.73;12.46;93757.78;5086775;28;20035;-43
2021/04/12 10:52:26;;;;;;;0.80;0.70;;;;;;;32.74;12.96;93751.38;5064978;28;20470;-41
2021/04/12 10:55:11;;;;;;;0.80;0.80;;;;;;;32.03;12.77;93745.81;5089577;28;20030;-42
2021/04/12 10:57:48;;;;;;;0.90;0.60;;;;;;;32.63;13.37;93738.31;5079948;28;20382;-41
2021/04/12 11:00:32;;;;;;;1.80;1.08;;;;;;;33.27;12.79;93747.16;5085213;28;21084;-42
2021/04/12 11:03:23;;;;;;;0.75;0.75;;;;;;;32.66;13.40;93748.34;5088883;28;20503;-44
2021/04/12 11:06:03;;;;;;;0.75;0.75;;;;;;;33.01;12.87;93721.03;5076475;28;20036;-43
2021/04/12 11:08:36;;;;;;;1.05;0.57;;;;;;;33.03;13.07;93740.38;5081797;28;20016;-42
2021/04/12 11:11:16;;;;;;;1.20;0.75;;;;;;;33.28;12.75;93737.16;5075554;28;20024;-43
2021/04/12 11:13:47;;;;;;;0.70;0.70;;;;;;;32.96;13.13;93730.22;5076768;28;20024;-43
2021/04/12 11:16:17;;;;;;;1.73;1.63;;;;;;;32.94;12.66;93728.06;5079656;28;20120;-42
2021/04/12 11:19:12;;;;;;;0.20;0.20;;;;;;;33.02;14.08;93738.94;5076969;28;20047;-43
2021/04/12 11:21:50;;;;;;;2.40;1.42;;;;;;;33.41;12.84;93729.44;5079265;28;20102;-44
2021/04/12 11:24:23;;;;;;;0.40;0.40;;;;;;;32.42;14.27;93698.63;5085776;28;20032;-44
2021/04/12 11:27:06;;;;;;;0.73;0.70;;;;;;;31.93;14.20;93719.88;5088874;28;20655;-44
2021/04/12 11:29:35;;;;;;;0.47;0.47;;;;;;;31.36;14.47;93724.47;5087043;28;20123;-41
2021/04/12 11:32:07;;;;;;;0.63;0.63;;;;;;;30.22;14.77;93725.34;5088519;28;20116;-43
2021/04/12 11:34:41;;;;;;;0.70;0.70;;;;;;;29.73;15.76;93725.47;5089334;28;20500;-44
2021/04/12 11:37:25;;;;;;;0.50;0.50;;;;;;;29.12;15.18;93712.34;5088531;28;20043;-42
2021/04/12 11:39:53;;;;;;;0.60;0.60;;;;;;;29.24;16.32;93723.38;5088469;28;20103;-43
2021/04/12 11:42:22;;;;;;;0.30;0.30;;;;;;;29.29;16.38;93710.00;5085771;28;20041;-42
2021/04/12 11:44:51;;;;;;;2.60;1.33;;;;;;;29.05;16.77;93722.09;5078725;28;20520;-42
2021/04/12 11:47:44;;;;;;;0.50;0.43;;;;;;;28.80;16.78;93713.50;5088284;28;20032;-43
2021/04/12 11:50:43;;;;;;;3.50;1.58;;;;;;;28.52;16.97;93713.34;5076753;28;20032;-42
2021/04/12 11:53:20;;;;;;;0.80;0.55;;;;;;;28.08;17.00;93706.94;5086816;28;20111;-42
2021/04/12 11:56:08;;;;;;;0.93;0.93;;;;;;;27.76;17.92;93700.16;5076790;28;20523;-41
2021/04/12 11:59:03;;;;;;;;;;;;;;;27.46;17.47;93702.66;5082039;28;20030;-44
2021/04/12 12:01:53;;;;;;;0.47;0.47;;;;;;;27.24;18.12;93704.69;5074858;28;20394;-42
2021/04/12 12:04:38;;;;;;;0.85;0.60;;;;;;;27.04;19.08;93698.28;5075445;28;20078;-41
2021/04/12 12:07:04;;;;;;;2.30;1.20;;;;;;;26.78;18.64;93688.81;5084661;28;20028;-43
2021/04/12 12:10:05;;;;;;;0.45;0.45;;;;;;;26.75;17.83;93685.16;5087215;28;20035;-42
2021/04/12 12:12:55;;;;;;;0.28;0.28;;;;;;;26.92;19.67;93678.72;5067457;28;20733;-42
2021/04/12 12:15:59;;;;;;;0.65;0.50;;;;;;;27.02;18.37;93684.78;5087834;28;20516;-43
2021/04/12 12:18:27;;;;;;;1.15;1.05;;;;;;;26.62;19.76;93676.81;5085295;28;20024;-43
2021/04/12 12:21:06;;;;;;;0.90;0.90;;;;;;;26.26;19.19;93667.66;5077847;28;20028;-42
2021/04/12 12:23:58;;;;;;;0.63;0.63;;;;;;;26.37;18.74;93678.00;5077967;28;20271;-44
2021/04/12 12:26:26;;;;;;;1.30;1.15;;;;;;;25.88;19.31;93675.31;5084960;28;20024;-45
2021/04/12 12:29:04;;;;;;;0.37;0.37;;;;;;;25.46;20.54;93674.28;5086834;28;20020;-43
2021/04/12 12:31:35;;;;;;;0.20;0.20;;;;;;;25.37;19.95;93666.06;5082169;28;20358;-43
2021/04/12 12:34:12;;;;;;;0.40;0.40;;;;;;;25.46;19.84;93670.72;5081101;28;20705;-42
2021/04/12 12:36:46;;;;;;;0.25;0.22;;;;;;;25.25;20.07;93666.25;5070013;28;20024;-43
2021/04/12 12:39:20;;;;;;;0.30;0.30;;;;;;;25.24;21.05;93666.91;5066425;28;20039;-41
2021/04/12 12:41:47;;;;;;;1.48;0.75;;;;;;;25.13;20.98;93668.59;5083475;28;20111;-42
2021/04/12 12:44:16;;;;;;;0.52;0.52;;;;;;;24.58;20.99;93662.56;5075435;28;20559;-42
2021/04/12 12:46:44;;;;;;;0.88;0.88;;;;;;;24.32;21.00;93652.88;5077540;28;20024;-42
2021/04/12 12:49:23;;;;;;;1.23;0.95;;;;;;;24.00;21.07;93649.25;5083005;28;20053;-43
2021/04/12 12:51:50;;;;;;;0.40;0.40;;;;;;;23.81;21.32;93646.19;5077271;28;20042;-42
2021/04/12 12:54:23;;;;;;;0.98;0.98;;;;;;;24.29;22.80;93639.34;5075711;28;20137;-41
2021/04/12 12:56:49;;;;;;;0.47;0.47;;;;;;;24.51;23.68;93634.72;5078371;28;20020;-43
2021/04/12 12:59:25;;;;;;;2.35;1.70;;;;;;;24.59;22.12;93643.53;5077371;28;20071;-42
2021/04/12 13:01:51;;;;;;;0.82;0.80;;;;;;;24.51;22.92;93638.25;5071962;28;20031;-44
2021/04/12 13:04:23;;;;;;;1.13;0.75;;;;;;;24.51;21.89;93635.44;5067120;28;20052;-43